sensor_id;sensor_type;location;lat;lon;timestamp;P1;durP1;ratioP1;P2;durP2;ratioP2
7485;SDS011;3784;54.098;9.998;2023-04-01T00:01:03;40.20;;;26.30;;
7485;SDS011;3784;54.098;9.998;2023-04-01T00:03:30;34.83;;;25.63;;
7485;SDS011;3784;54.098;9.998;2023-04-01T00:05:59;44.53;;;27.37;;
7485;SDS011;3784;54.098;9.998;2023-04-01T00:08:27;37.03;;;26.33;;
7485;SDS011;3784;54.098;9.998;2023-04-01T00:10:53;33.70;;;25.47;;
7485;SDS011;3784;54.098;9.998;2023-04-01T00:13:20;33.33;;;24.30;;
7485;SDS011;3784;54.098;9.998;2023-04-01T00:15:47;44.20;;;28.17;;
7485;SDS011;3784;54.098;9.998;2023-04-01T00:18:14;34.53;;;23.80;;
7485;SDS011;3784;54.098;9.998;2023-04-01T00:20:45;34.17;;;24.40;;
7485;SDS011;3784;54.098;9.998;2023-04-01T00:23:13;36.60;;;24.97;;
7485;SDS011;3784;54.098;9.998;2023-04-01T00:25:40;45.27;;;27.50;;
7485;SDS011;3784;54.098;9.998;2023-04-01T00:28:07;33.30;;;24.37;;
7485;SDS011;3784;54.098;9.998;2023-04-01T00:30:35;34.10;;;24.37;;
7485;SDS011;3784;54.098;9.998;2023-04-01T00:33:02;38.73;;;25.93;;
7485;SDS011;3784;54.098;9.998;2023-04-01T00:35:29;44.87;;;26.93;;
7485;SDS011;3784;54.098;9.998;2023-04-01T00:37:56;35.27;;;24.90;;
7485;SDS011;3784;54.098;9.998;2023-04-01T00:40:30;36.20;;;24.63;;
7485;SDS011;3784;54.098;9.998;2023-04-01T00:42:58;35.47;;;24.50;;
7485;SDS011;3784;54.098;9.998;2023-04-01T00:45:29;36.87;;;25.47;;
7485;SDS011;3784;54.098;9.998;2023-04-01T00:47:56;36.40;;;24.60;;
7485;SDS011;3784;54.098;9.998;2023-04-01T00:50:26;38.37;;;25.60;;
7485;SDS011;3784;54.098;9.998;2023-04-01T00:52:53;40.50;;;25.07;;
7485;SDS011;3784;54.098;9.998;2023-04-01T00:55:20;36.67;;;22.80;;
7485;SDS011;3784;54.098;9.998;2023-04-01T00:57:48;37.93;;;23.27;;
7485;SDS011;3784;54.098;9.998;2023-04-01T01:00:16;39.57;;;22.63;;
7485;SDS011;3784;54.098;9.998;2023-04-01T01:02:44;32.47;;;20.30;;
7485;SDS011;3784;54.098;9.998;2023-04-01T01:05:13;35.23;;;20.63;;
7485;SDS011;3784;54.098;9.998;2023-04-01T01:10:41;34.07;;;19.40;;
7485;SDS011;3784;54.098;9.998;2023-04-01T01:13:10;34.13;;;17.87;;
7485;SDS011;3784;54.098;9.998;2023-04-01T01:16:04;26.10;;;14.90;;
7485;SDS011;3784;54.098;9.998;2023-04-01T01:18:41;28.93;;;16.73;;
7485;SDS011;3784;54.098;9.998;2023-04-01T01:24:26;18.17;;;11.93;;
7485;SDS011;3784;54.098;9.998;2023-04-01T01:35:22;16.57;;;11.37;;
7485;SDS011;3784;54.098;9.998;2023-04-01T01:38:17;16.47;;;10.93;;
7485;SDS011;3784;54.098;9.998;2023-04-01T01:40:47;13.47;;;10.07;;
7485;SDS011;3784;54.098;9.998;2023-04-01T01:43:18;13.27;;;9.20;;
7485;SDS011;3784;54.098;9.998;2023-04-01T01:45:48;10.23;;;8.30;;
7485;SDS011;3784;54.098;9.998;2023-04-01T01:48:18;11.37;;;8.30;;
7485;SDS011;3784;54.098;9.998;2023-04-01T01:50:46;11.47;;;7.63;;
7485;SDS011;3784;54.098;9.998;2023-04-01T01:53:13;8.97;;;6.20;;
7485;SDS011;3784;54.098;9.998;2023-04-01T01:55:41;8.87;;;6.80;;
7485;SDS011;3784;54.098;9.998;2023-04-01T02:00:36;7.93;;;6.33;;
7485;SDS011;3784;54.098;9.998;2023-04-01T02:03:03;7.33;;;5.97;;
7485;SDS011;3784;54.098;9.998;2023-04-01T02:05:30;6.47;;;5.43;;
7485;SDS011;3784;54.098;9.998;2023-04-01T02:08:03;6.43;;;5.73;;
7485;SDS011;3784;54.098;9.998;2023-04-01T02:10:34;6.20;;;5.30;;
7485;SDS011;3784;54.098;9.998;2023-04-01T02:13:04;7.17;;;5.13;;
7485;SDS011;3784;54.098;9.998;2023-04-01T02:15:34;8.53;;;4.40;;
7485;SDS011;3784;54.098;9.998;2023-04-01T02:18:05;5.90;;;5.07;;
7485;SDS011;3784;54.098;9.998;2023-04-01T02:20:32;7.97;;;5.97;;
7485;SDS011;3784;54.098;9.998;2023-04-01T02:22:58;7.47;;;5.50;;
7485;SDS011;3784;54.098;9.998;2023-04-01T02:25:30;7.07;;;6.03;;
7485;SDS011;3784;54.098;9.998;2023-04-01T02:28:00;6.80;;;6.03;;
7485;SDS011;3784;54.098;9.998;2023-04-01T02:30:31;8.17;;;6.13;;
7485;SDS011;3784;54.098;9.998;2023-04-01T02:32:58;6.50;;;5.90;;
7485;SDS011;3784;54.098;9.998;2023-04-01T02:35:25;7.00;;;5.87;;
7485;SDS011;3784;54.098;9.998;2023-04-01T02:37:53;6.17;;;5.50;;
7485;SDS011;3784;54.098;9.998;2023-04-01T02:40:20;6.10;;;5.33;;
7485;SDS011;3784;54.098;9.998;2023-04-01T02:42:47;6.97;;;6.27;;
7485;SDS011;3784;54.098;9.998;2023-04-01T02:45:14;7.60;;;4.97;;
7485;SDS011;3784;54.098;9.998;2023-04-01T02:47:40;6.70;;;5.67;;
7485;SDS011;3784;54.098;9.998;2023-04-01T02:50:07;5.03;;;4.53;;
7485;SDS011;3784;54.098;9.998;2023-04-01T02:52:35;5.37;;;4.07;;
7485;SDS011;3784;54.098;9.998;2023-04-01T02:55:01;4.50;;;4.10;;
7485;SDS011;3784;54.098;9.998;2023-04-01T02:57:29;4.73;;;4.33;;
7485;SDS011;3784;54.098;9.998;2023-04-01T02:59:55;5.73;;;4.27;;
7485;SDS011;3784;54.098;9.998;2023-04-01T03:02:22;3.63;;;3.20;;
7485;SDS011;3784;54.098;9.998;2023-04-01T03:04:48;4.90;;;3.90;;
7485;SDS011;3784;54.098;9.998;2023-04-01T03:07:15;4.73;;;3.63;;
7485;SDS011;3784;54.098;9.998;2023-04-01T03:09:42;4.70;;;3.77;;
7485;SDS011;3784;54.098;9.998;2023-04-01T03:12:08;5.13;;;3.70;;
7485;SDS011;3784;54.098;9.998;2023-04-01T03:14:35;4.23;;;3.37;;
7485;SDS011;3784;54.098;9.998;2023-04-01T03:17:01;3.30;;;3.00;;
7485;SDS011;3784;54.098;9.998;2023-04-01T03:19:28;3.40;;;2.97;;
7485;SDS011;3784;54.098;9.998;2023-04-01T03:21:55;3.47;;;2.67;;
7485;SDS011;3784;54.098;9.998;2023-04-01T03:24:21;2.57;;;2.30;;
7485;SDS011;3784;54.098;9.998;2023-04-01T03:26:48;3.57;;;2.70;;
7485;SDS011;3784;54.098;9.998;2023-04-01T03:29:14;3.10;;;2.57;;
7485;SDS011;3784;54.098;9.998;2023-04-01T03:31:42;2.80;;;2.60;;
7485;SDS011;3784;54.098;9.998;2023-04-01T03:34:09;3.37;;;2.63;;
7485;SDS011;3784;54.098;9.998;2023-04-01T03:36:36;4.10;;;2.80;;
7485;SDS011;3784;54.098;9.998;2023-04-01T03:39:02;5.03;;;2.83;;
7485;SDS011;3784;54.098;9.998;2023-04-01T03:41:29;3.67;;;3.10;;
7485;SDS011;3784;54.098;9.998;2023-04-01T03:43:56;3.70;;;3.30;;
7485;SDS011;3784;54.098;9.998;2023-04-01T03:46:23;4.17;;;3.27;;
7485;SDS011;3784;54.098;9.998;2023-04-01T03:48:50;3.63;;;2.87;;
7485;SDS011;3784;54.098;9.998;2023-04-01T03:51:16;3.40;;;3.07;;
7485;SDS011;3784;54.098;9.998;2023-04-01T03:53:43;3.50;;;3.00;;
7485;SDS011;3784;54.098;9.998;2023-04-01T03:56:09;2.97;;;2.63;;
7485;SDS011;3784;54.098;9.998;2023-04-01T03:58:36;3.50;;;2.73;;
7485;SDS011;3784;54.098;9.998;2023-04-01T04:01:03;3.60;;;2.80;;
7485;SDS011;3784;54.098;9.998;2023-04-01T04:03:30;2.77;;;2.57;;
7485;SDS011;3784;54.098;9.998;2023-04-01T04:05:57;2.90;;;2.60;;
7485;SDS011;3784;54.098;9.998;2023-04-01T04:08:24;3.20;;;2.60;;
7485;SDS011;3784;54.098;9.998;2023-04-01T04:10:56;2.73;;;2.50;;
7485;SDS011;3784;54.098;9.998;2023-04-01T04:13:23;4.00;;;2.20;;
7485;SDS011;3784;54.098;9.998;2023-04-01T04:15:49;2.20;;;2.00;;
7485;SDS011;3784;54.098;9.998;2023-04-01T04:18:16;2.27;;;1.77;;
7485;SDS011;3784;54.098;9.998;2023-04-01T04:20:43;1.93;;;1.53;;
7485;SDS011;3784;54.098;9.998;2023-04-01T04:23:11;1.93;;;1.80;;
7485;SDS011;3784;54.098;9.998;2023-04-01T04:25:38;1.77;;;1.67;;
7485;SDS011;3784;54.098;9.998;2023-04-01T04:28:04;2.00;;;1.80;;
7485;SDS011;3784;54.098;9.998;2023-04-01T04:30:31;3.10;;;2.80;;
7485;SDS011;3784;54.098;9.998;2023-04-01T04:32:57;22.10;;;19.83;;
7485;SDS011;3784;54.098;9.998;2023-04-01T04:35:24;2.30;;;1.80;;
7485;SDS011;3784;54.098;9.998;2023-04-01T04:37:50;2.20;;;2.00;;
7485;SDS011;3784;54.098;9.998;2023-04-01T04:40:17;2.10;;;1.90;;
7485;SDS011;3784;54.098;9.998;2023-04-01T04:42:43;2.60;;;1.90;;
7485;SDS011;3784;54.098;9.998;2023-04-01T04:45:10;1.63;;;1.53;;
7485;SDS011;3784;54.098;9.998;2023-04-01T04:47:38;1.47;;;1.37;;
7485;SDS011;3784;54.098;9.998;2023-04-01T04:50:05;1.87;;;1.73;;
7485;SDS011;3784;54.098;9.998;2023-04-01T04:52:32;1.70;;;1.60;;
7485;SDS011;3784;54.098;9.998;2023-04-01T04:54:59;3.30;;;1.80;;
7485;SDS011;3784;54.098;9.998;2023-04-01T04:57:25;2.40;;;1.60;;
7485;SDS011;3784;54.098;9.998;2023-04-01T04:59:52;2.40;;;1.80;;
7485;SDS011;3784;54.098;9.998;2023-04-01T05:02:19;2.07;;;1.80;;
7485;SDS011;3784;54.098;9.998;2023-04-01T05:04:45;2.63;;;1.80;;
7485;SDS011;3784;54.098;9.998;2023-04-01T05:07:12;2.07;;;1.53;;
7485;SDS011;3784;54.098;9.998;2023-04-01T05:09:38;1.90;;;1.80;;
7485;SDS011;3784;54.098;9.998;2023-04-01T05:12:05;2.70;;;2.10;;
7485;SDS011;3784;54.098;9.998;2023-04-01T05:14:31;4.17;;;2.10;;
7485;SDS011;3784;54.098;9.998;2023-04-01T05:16:58;3.13;;;2.10;;
7485;SDS011;3784;54.098;9.998;2023-04-01T05:19:24;2.27;;;2.00;;
7485;SDS011;3784;54.098;9.998;2023-04-01T05:21:51;3.33;;;2.00;;
7485;SDS011;3784;54.098;9.998;2023-04-01T05:24:19;2.30;;;2.10;;
7485;SDS011;3784;54.098;9.998;2023-04-01T05:26:45;3.30;;;2.50;;
7485;SDS011;3784;54.098;9.998;2023-04-01T05:29:12;3.83;;;2.40;;
7485;SDS011;3784;54.098;9.998;2023-04-01T05:31:38;3.37;;;2.40;;
7485;SDS011;3784;54.098;9.998;2023-04-01T05:34:05;2.40;;;2.20;;
7485;SDS011;3784;54.098;9.998;2023-04-01T05:36:31;2.93;;;2.00;;
7485;SDS011;3784;54.098;9.998;2023-04-01T05:38:58;2.30;;;2.10;;
7485;SDS011;3784;54.098;9.998;2023-04-01T05:41:24;2.23;;;1.70;;
7485;SDS011;3784;54.098;9.998;2023-04-01T05:43:51;3.07;;;2.50;;
7485;SDS011;3784;54.098;9.998;2023-04-01T05:46:17;4.03;;;2.57;;
7485;SDS011;3784;54.098;9.998;2023-04-01T05:48:44;2.33;;;1.90;;
7485;SDS011;3784;54.098;9.998;2023-04-01T05:51:14;2.30;;;1.73;;
7485;SDS011;3784;54.098;9.998;2023-04-01T05:53:41;1.90;;;1.70;;
7485;SDS011;3784;54.098;9.998;2023-04-01T05:56:08;2.10;;;1.90;;
7485;SDS011;3784;54.098;9.998;2023-04-01T05:58:36;4.13;;;3.20;;
7485;SDS011;3784;54.098;9.998;2023-04-01T06:01:03;4.90;;;4.07;;
7485;SDS011;3784;54.098;9.998;2023-04-01T06:03:40;10.33;;;9.33;;
7485;SDS011;3784;54.098;9.998;2023-04-01T06:06:29;2.30;;;2.10;;
7485;SDS011;3784;54.098;9.998;2023-04-01T06:08:56;2.70;;;1.73;;
7485;SDS011;3784;54.098;9.998;2023-04-01T06:11:46;4.27;;;2.07;;
7485;SDS011;3784;54.098;9.998;2023-04-01T06:14:23;2.00;;;1.50;;
7485;SDS011;3784;54.098;9.998;2023-04-01T06:17:07;1.80;;;1.70;;
7485;SDS011;3784;54.098;9.998;2023-04-01T06:19:41;1.57;;;1.47;;
7485;SDS011;3784;54.098;9.998;2023-04-01T06:25:28;2.33;;;1.40;;
7485;SDS011;3784;54.098;9.998;2023-04-01T06:31:17;3.50;;;1.60;;
7485;SDS011;3784;54.098;9.998;2023-04-01T06:39:27;1.97;;;1.33;;
7485;SDS011;3784;54.098;9.998;2023-04-01T06:42:06;1.60;;;1.50;;
7485;SDS011;3784;54.098;9.998;2023-04-01T06:44:43;2.50;;;1.30;;
7485;SDS011;3784;54.098;9.998;2023-04-01T06:47:22;1.70;;;1.50;;
7485;SDS011;3784;54.098;9.998;2023-04-01T06:50:20;1.67;;;1.57;;
7485;SDS011;3784;54.098;9.998;2023-04-01T06:58:49;1.87;;;1.33;;
7485;SDS011;3784;54.098;9.998;2023-04-01T07:01:26;1.27;;;1.17;;
7485;SDS011;3784;54.098;9.998;2023-04-01T07:04:00;1.50;;;1.40;;
7485;SDS011;3784;54.098;9.998;2023-04-01T07:06:38;1.40;;;1.30;;
7485;SDS011;3784;54.098;9.998;2023-04-01T07:09:12;1.20;;;1.10;;
7485;SDS011;3784;54.098;9.998;2023-04-01T07:11:42;1.43;;;1.33;;
7485;SDS011;3784;54.098;9.998;2023-04-01T07:17:04;1.73;;;1.30;;
7485;SDS011;3784;54.098;9.998;2023-04-01T07:22:19;5.90;;;4.53;;
7485;SDS011;3784;54.098;9.998;2023-04-01T07:24:52;2.73;;;2.53;;
7485;SDS011;3784;54.098;9.998;2023-04-01T07:27:20;3.13;;;2.93;;
7485;SDS011;3784;54.098;9.998;2023-04-01T07:29:46;2.17;;;1.40;;
7485;SDS011;3784;54.098;9.998;2023-04-01T07:32:15;2.53;;;1.80;;
7485;SDS011;3784;54.098;9.998;2023-04-01T07:43:14;2.53;;;1.33;;
7485;SDS011;3784;54.098;9.998;2023-04-01T07:48:45;1.70;;;1.40;;
7485;SDS011;3784;54.098;9.998;2023-04-01T07:54:00;1.97;;;1.50;;
7485;SDS011;3784;54.098;9.998;2023-04-01T07:59:30;1.87;;;1.40;;
7485;SDS011;3784;54.098;9.998;2023-04-01T08:02:04;5.10;;;3.60;;
7485;SDS011;3784;54.098;9.998;2023-04-01T08:04:35;2.30;;;1.57;;
7485;SDS011;3784;54.098;9.998;2023-04-01T08:07:22;2.10;;;1.40;;
7485;SDS011;3784;54.098;9.998;2023-04-01T08:09:54;2.03;;;1.90;;
7485;SDS011;3784;54.098;9.998;2023-04-01T08:23:05;1.20;;;1.20;;
7485;SDS011;3784;54.098;9.998;2023-04-01T08:25:49;1.63;;;1.30;;
7485;SDS011;3784;54.098;9.998;2023-04-01T08:31:07;2.50;;;1.50;;
7485;SDS011;3784;54.098;9.998;2023-04-01T08:33:37;3.40;;;2.97;;
7485;SDS011;3784;54.098;9.998;2023-04-01T08:36:12;1.83;;;1.73;;
7485;SDS011;3784;54.098;9.998;2023-04-01T08:38:59;2.87;;;1.60;;
7485;SDS011;3784;54.098;9.998;2023-04-01T08:44:19;1.97;;;1.70;;
7485;SDS011;3784;54.098;9.998;2023-04-01T08:46:59;2.40;;;2.20;;
7485;SDS011;3784;54.098;9.998;2023-04-01T08:52:15;1.63;;;1.30;;
7485;SDS011;3784;54.098;9.998;2023-04-01T08:54:52;1.83;;;1.40;;
7485;SDS011;3784;54.098;9.998;2023-04-01T09:11:55;3.70;;;1.90;;
7485;SDS011;3784;54.098;9.998;2023-04-01T09:17:02;2.70;;;2.40;;
7485;SDS011;3784;54.098;9.998;2023-04-01T09:19:48;2.17;;;1.73;;
7485;SDS011;3784;54.098;9.998;2023-04-01T09:22:25;2.90;;;2.10;;
7485;SDS011;3784;54.098;9.998;2023-04-01T09:25:20;3.27;;;2.20;;
7485;SDS011;3784;54.098;9.998;2023-04-01T09:28:02;3.00;;;1.93;;
7485;SDS011;3784;54.098;9.998;2023-04-01T09:41:35;2.70;;;2.20;;
7485;SDS011;3784;54.098;9.998;2023-04-01T09:44:14;3.43;;;2.30;;
7485;SDS011;3784;54.098;9.998;2023-04-01T10:04:11;4.57;;;3.30;;
7485;SDS011;3784;54.098;9.998;2023-04-01T10:12:40;6.00;;;3.83;;
7485;SDS011;3784;54.098;9.998;2023-04-01T10:24:55;7.30;;;4.50;;
7485;SDS011;3784;54.098;9.998;2023-04-01T10:36:52;7.00;;;4.20;;
7485;SDS011;3784;54.098;9.998;2023-04-01T11:06:47;9.37;;;5.47;;
7485;SDS011;3784;54.098;9.998;2023-04-01T11:18:24;8.30;;;4.63;;
7485;SDS011;3784;54.098;9.998;2023-04-01T11:30:26;10.30;;;4.80;;
7485;SDS011;3784;54.098;9.998;2023-04-01T11:41:24;8.40;;;4.07;;
7485;SDS011;3784;54.098;9.998;2023-04-01T11:58:22;9.63;;;5.97;;
7485;SDS011;3784;54.098;9.998;2023-04-01T12:01:21;11.77;;;5.40;;
7485;SDS011;3784;54.098;9.998;2023-04-01T12:09:39;7.20;;;4.33;;
7485;SDS011;3784;54.098;9.998;2023-04-01T12:20:46;8.07;;;4.87;;
7485;SDS011;3784;54.098;9.998;2023-04-01T12:23:45;9.37;;;5.33;;
7485;SDS011;3784;54.098;9.998;2023-04-01T12:40:27;9.83;;;5.53;;
7485;SDS011;3784;54.098;9.998;2023-04-01T12:55:52;8.83;;;5.07;;
7485;SDS011;3784;54.098;9.998;2023-04-01T12:58:34;14.70;;;6.43;;
7485;SDS011;3784;54.098;9.998;2023-04-01T13:01:45;9.87;;;5.13;;
7485;SDS011;3784;54.098;9.998;2023-04-01T13:29:31;9.50;;;5.10;;
7485;SDS011;3784;54.098;9.998;2023-04-01T13:45:29;8.63;;;4.77;;
7485;SDS011;3784;54.098;9.998;2023-04-01T13:48:23;8.00;;;3.97;;
7485;SDS011;3784;54.098;9.998;2023-04-01T13:53:51;7.70;;;4.27;;
7485;SDS011;3784;54.098;9.998;2023-04-01T14:01:43;14.83;;;9.27;;
7485;SDS011;3784;54.098;9.998;2023-04-01T14:07:18;9.90;;;7.00;;
7485;SDS011;3784;54.098;9.998;2023-04-01T14:10:53;11.73;;;7.60;;
7485;SDS011;3784;54.098;9.998;2023-04-01T14:21:13;10.93;;;5.93;;
7485;SDS011;3784;54.098;9.998;2023-04-01T14:23:49;10.87;;;6.90;;
7485;SDS011;3784;54.098;9.998;2023-04-01T14:48:32;5.23;;;3.43;;
7485;SDS011;3784;54.098;9.998;2023-04-01T14:51:22;7.73;;;3.63;;
7485;SDS011;3784;54.098;9.998;2023-04-01T14:54:10;7.73;;;4.00;;
7485;SDS011;3784;54.098;9.998;2023-04-01T14:56:43;6.53;;;3.67;;
7485;SDS011;3784;54.098;9.998;2023-04-01T14:59:15;6.33;;;4.10;;
7485;SDS011;3784;54.098;9.998;2023-04-01T15:32:16;7.27;;;3.47;;
7485;SDS011;3784;54.098;9.998;2023-04-01T15:34:55;5.93;;;3.10;;
7485;SDS011;3784;54.098;9.998;2023-04-01T15:37:34;5.03;;;3.57;;
7485;SDS011;3784;54.098;9.998;2023-04-01T15:43:00;4.87;;;3.43;;
7485;SDS011;3784;54.098;9.998;2023-04-01T15:51:14;5.80;;;3.37;;
7485;SDS011;3784;54.098;9.998;2023-04-01T16:08:32;7.70;;;4.57;;
7485;SDS011;3784;54.098;9.998;2023-04-01T16:36:49;4.70;;;3.00;;
7485;SDS011;3784;54.098;9.998;2023-04-01T16:40:20;5.93;;;2.87;;
7485;SDS011;3784;54.098;9.998;2023-04-01T16:42:51;7.00;;;3.73;;
7485;SDS011;3784;54.098;9.998;2023-04-01T16:47:56;4.07;;;2.90;;
7485;SDS011;3784;54.098;9.998;2023-04-01T16:50:43;5.03;;;3.50;;
7485;SDS011;3784;54.098;9.998;2023-04-01T16:53:17;6.03;;;3.30;;
7485;SDS011;3784;54.098;9.998;2023-04-01T16:58:27;8.80;;;5.87;;
7485;SDS011;3784;54.098;9.998;2023-04-01T17:01:09;8.33;;;5.90;;
7485;SDS011;3784;54.098;9.998;2023-04-01T17:03:49;4.53;;;2.40;;
7485;SDS011;3784;54.098;9.998;2023-04-01T17:06:21;4.70;;;2.60;;
7485;SDS011;3784;54.098;9.998;2023-04-01T17:12:24;3.17;;;2.10;;
7485;SDS011;3784;54.098;9.998;2023-04-01T17:18:09;6.30;;;3.23;;
7485;SDS011;3784;54.098;9.998;2023-04-01T17:29:05;4.50;;;2.90;;
7485;SDS011;3784;54.098;9.998;2023-04-01T17:37:26;15.33;;;7.33;;
7485;SDS011;3784;54.098;9.998;2023-04-01T17:47:40;3.57;;;2.23;;
7485;SDS011;3784;54.098;9.998;2023-04-01T17:50:21;4.37;;;2.70;;
7485;SDS011;3784;54.098;9.998;2023-04-01T17:56:03;4.73;;;2.30;;
7485;SDS011;3784;54.098;9.998;2023-04-01T17:58:39;3.70;;;2.03;;
7485;SDS011;3784;54.098;9.998;2023-04-01T18:01:17;4.33;;;2.53;;
7485;SDS011;3784;54.098;9.998;2023-04-01T18:03:54;7.83;;;2.20;;
7485;SDS011;3784;54.098;9.998;2023-04-01T18:14:26;3.00;;;2.20;;
7485;SDS011;3784;54.098;9.998;2023-04-01T18:25:28;9.37;;;3.10;;
7485;SDS011;3784;54.098;9.998;2023-04-01T18:30:32;4.97;;;2.70;;
7485;SDS011;3784;54.098;9.998;2023-04-01T18:35:50;4.20;;;3.03;;
7485;SDS011;3784;54.098;9.998;2023-04-01T18:38:27;7.10;;;3.53;;
7485;SDS011;3784;54.098;9.998;2023-04-01T18:43:46;3.37;;;2.60;;
7485;SDS011;3784;54.098;9.998;2023-04-01T18:46:25;8.60;;;3.03;;
7485;SDS011;3784;54.098;9.998;2023-04-01T18:54:05;11.77;;;6.83;;
7485;SDS011;3784;54.098;9.998;2023-04-01T18:56:41;7.83;;;4.40;;
7485;SDS011;3784;54.098;9.998;2023-04-01T19:01:52;10.83;;;6.03;;
7485;SDS011;3784;54.098;9.998;2023-04-01T19:05:00;6.63;;;3.43;;
7485;SDS011;3784;54.098;9.998;2023-04-01T19:18:33;3.87;;;2.70;;
7485;SDS011;3784;54.098;9.998;2023-04-01T19:39:51;6.53;;;3.53;;
7485;SDS011;3784;54.098;9.998;2023-04-01T19:42:36;11.70;;;3.50;;
7485;SDS011;3784;54.098;9.998;2023-04-01T19:48:31;6.53;;;3.27;;
7485;SDS011;3784;54.098;9.998;2023-04-01T19:56:24;3.63;;;2.43;;
7485;SDS011;3784;54.098;9.998;2023-04-01T20:04:21;6.60;;;2.77;;
7485;SDS011;3784;54.098;9.998;2023-04-01T20:06:56;6.50;;;3.00;;
7485;SDS011;3784;54.098;9.998;2023-04-01T20:14:54;10.63;;;3.00;;
7485;SDS011;3784;54.098;9.998;2023-04-01T20:17:42;7.70;;;3.80;;
7485;SDS011;3784;54.098;9.998;2023-04-01T20:27:49;8.47;;;3.30;;
7485;SDS011;3784;54.098;9.998;2023-04-01T20:44:41;4.13;;;2.40;;
7485;SDS011;3784;54.098;9.998;2023-04-01T20:50:29;5.37;;;2.57;;
7485;SDS011;3784;54.098;9.998;2023-04-01T20:53:01;3.70;;;2.10;;
7485;SDS011;3784;54.098;9.998;2023-04-01T21:01:20;6.13;;;3.70;;
7485;SDS011;3784;54.098;9.998;2023-04-01T21:05:18;6.23;;;2.80;;
7485;SDS011;3784;54.098;9.998;2023-04-01T21:15:29;7.87;;;2.93;;
7485;SDS011;3784;54.098;9.998;2023-04-01T21:18:12;5.97;;;3.23;;
7485;SDS011;3784;54.098;9.998;2023-04-01T21:28:26;4.70;;;2.57;;
7485;SDS011;3784;54.098;9.998;2023-04-01T21:33:42;6.97;;;2.87;;
7485;SDS011;3784;54.098;9.998;2023-04-01T21:39:04;5.57;;;2.87;;
7485;SDS011;3784;54.098;9.998;2023-04-01T21:41:47;10.67;;;2.43;;
7485;SDS011;3784;54.098;9.998;2023-04-01T21:47:20;2.97;;;2.50;;
7485;SDS011;3784;54.098;9.998;2023-04-01T21:50:11;5.50;;;2.20;;
7485;SDS011;3784;54.098;9.998;2023-04-01T22:06:22;6.03;;;1.80;;
7485;SDS011;3784;54.098;9.998;2023-04-01T22:14:55;6.60;;;1.80;;
7485;SDS011;3784;54.098;9.998;2023-04-01T22:17:28;5.63;;;1.80;;
7485;SDS011;3784;54.098;9.998;2023-04-01T22:20:03;3.23;;;1.80;;
7485;SDS011;3784;54.098;9.998;2023-04-01T22:25:25;5.47;;;2.17;;
7485;SDS011;3784;54.098;9.998;2023-04-01T22:28:07;5.37;;;2.47;;
7485;SDS011;3784;54.098;9.998;2023-04-01T22:30:42;5.70;;;1.93;;
7485;SDS011;3784;54.098;9.998;2023-04-01T22:36:19;4.93;;;2.20;;
7485;SDS011;3784;54.098;9.998;2023-04-01T22:42:07;5.17;;;2.87;;
7485;SDS011;3784;54.098;9.998;2023-04-01T22:44:53;6.17;;;2.50;;
7485;SDS011;3784;54.098;9.998;2023-04-01T22:49:58;7.37;;;3.33;;
7485;SDS011;3784;54.098;9.998;2023-04-01T22:52:32;5.80;;;3.40;;
7485;SDS011;3784;54.098;9.998;2023-04-01T22:55:22;9.77;;;4.23;;
7485;SDS011;3784;54.098;9.998;2023-04-01T22:57:58;8.87;;;4.77;;
7485;SDS011;3784;54.098;9.998;2023-04-01T23:05:57;19.87;;;9.73;;
7485;SDS011;3784;54.098;9.998;2023-04-01T23:11:08;6.83;;;2.50;;
7485;SDS011;3784;54.098;9.998;2023-04-01T23:13:39;5.23;;;2.10;;
7485;SDS011;3784;54.098;9.998;2023-04-01T23:16:11;5.10;;;1.90;;
7485;SDS011;3784;54.098;9.998;2023-04-01T23:18:45;3.63;;;1.97;;
7485;SDS011;3784;54.098;9.998;2023-04-01T23:21:19;3.27;;;1.50;;
7485;SDS011;3784;54.098;9.998;2023-04-01T23:23:54;5.43;;;2.03;;
7485;SDS011;3784;54.098;9.998;2023-04-01T23:29:29;6.17;;;1.90;;
7485;SDS011;3784;54.098;9.998;2023-04-01T23:31:59;3.53;;;1.83;;
7485;SDS011;3784;54.098;9.998;2023-04-01T23:34:28;4.50;;;2.20;;
7485;SDS011;3784;54.098;9.998;2023-04-01T23:37:00;4.37;;;2.10;;
7485;SDS011;3784;54.098;9.998;2023-04-01T23:39:35;5.17;;;2.13;;
7485;SDS011;3784;54.098;9.998;2023-04-01T23:42:05;6.70;;;2.00;;
7485;SDS011;3784;54.098;9.998;2023-04-01T23:44:39;4.30;;;1.93;;
7485;SDS011;3784;54.098;9.998;2023-04-01T23:47:06;5.27;;;1.97;;
7485;SDS011;3784;54.098;9.998;2023-04-01T23:49:39;3.30;;;1.70;;
7485;SDS011;3784;54.098;9.998;2023-04-01T23:55:08;3.70;;;1.67;;
7485;SDS011;3784;54.098;9.998;2023-04-01T23:58:10;5.47;;;1.70;;
